createdAt,value
2022-10-05T00:02:24.752Z,62.12
2022-10-05T00:04:57.196Z,62.13
2022-10-05T00:07:25.229Z,62.07
2022-10-05T00:09:57.887Z,62.22
2022-10-05T00:12:28.418Z,62.24
2022-10-05T00:15:00.775Z,62.09
2022-10-05T00:17:30.707Z,62.32
2022-10-05T00:19:58.250Z,62.28
2022-10-05T00:22:33.863Z,62.26
2022-10-05T00:25:11.269Z,62.22
2022-10-05T00:27:39.110Z,62.31
2022-10-05T00:30:23.279Z,62.38
2022-10-05T00:32:53.888Z,62.49
2022-10-05T00:35:25.178Z,62.55
2022-10-05T00:37:55.098Z,62.47
2022-10-05T00:40:51.775Z,62.52
2022-10-05T00:43:21.965Z,62.41
2022-10-05T00:46:15.967Z,62.52
2022-10-05T00:49:05.170Z,62.43
2022-10-05T00:51:37.757Z,62.60
2022-10-05T00:54:37.350Z,62.61
2022-10-05T00:57:36.813Z,62.66
2022-10-05T01:00:13.544Z,62.76
2022-10-05T01:03:13.126Z,62.68
2022-10-05T01:06:11.620Z,62.81
2022-10-05T01:09:01.747Z,62.79
2022-10-05T01:11:31.874Z,62.84
2022-10-05T01:14:16.409Z,63.01
2022-10-05T01:16:47.105Z,63.06
2022-10-05T01:19:56.888Z,63.19
2022-10-05T01:22:53.265Z,63.18
2022-10-05T01:25:38.483Z,63.23
2022-10-05T01:28:06.058Z,63.16
2022-10-05T01:30:57.660Z,63.13
2022-10-05T01:33:29.325Z,63.12
2022-10-05T01:36:08.999Z,63.25
2022-10-05T01:39:02.023Z,63.24
2022-10-05T01:41:44.901Z,63.29
2022-10-05T01:44:18.030Z,63.33
2022-10-05T01:47:03.797Z,63.43
2022-10-05T01:49:47.374Z,63.35
2022-10-05T01:52:24.523Z,63.33
2022-10-05T01:55:24.005Z,63.41
2022-10-05T01:58:06.617Z,63.46
2022-10-05T02:00:49.713Z,63.54
2022-10-05T02:03:45.590Z,63.62
2022-10-05T02:06:32.605Z,63.57
2022-10-05T02:09:11.708Z,63.66
2022-10-05T02:11:42.767Z,63.62
2022-10-05T02:14:20.478Z,63.61
2022-10-05T02:16:52.518Z,63.60
2022-10-05T02:19:40.190Z,63.74
2022-10-05T02:22:17.739Z,63.75
2022-10-05T02:24:57.614Z,63.79
2022-10-05T02:27:31.582Z,63.91
2022-10-05T02:30:06.589Z,63.83
2022-10-05T02:32:45.776Z,63.89
2022-10-05T02:35:19.475Z,63.92
2022-10-05T02:37:46.935Z,64.04
2022-10-05T02:40:47.501Z,64.11
2022-10-05T02:43:43.879Z,64.06
2022-10-05T02:46:44.838Z,64.15
2022-10-05T02:49:28.763Z,64.23
2022-10-05T02:52:21.275Z,64.21
2022-10-05T02:55:03.910Z,64.36
2022-10-05T02:57:37.287Z,64.29
2022-10-05T03:00:25.037Z,64.40
2022-10-05T03:03:14.582Z,64.50
2022-10-05T03:05:53.377Z,64.57
2022-10-05T03:08:42.339Z,64.56
2022-10-05T03:11:41.083Z,64.69
2022-10-05T03:14:13.822Z,64.74
2022-10-05T03:17:00.009Z,64.67
2022-10-05T03:19:54.412Z,64.61
2022-10-05T03:22:40.423Z,64.56
2022-10-05T03:25:29.797Z,64.62
2022-10-05T03:28:16.221Z,64.60
2022-10-05T03:31:00.482Z,64.76
2022-10-05T03:33:49.945Z,64.75
2022-10-05T03:36:37.957Z,64.82
2022-10-05T03:39:21.498Z,64.90
2022-10-05T03:42:08.335Z,64.97
2022-10-05T03:44:51.854Z,65.00
2022-10-05T03:48:01.517Z,64.95
2022-10-05T03:50:34.127Z,65.03
2022-10-05T03:53:25.278Z,64.97
2022-10-05T03:56:10.662Z,65.18
2022-10-05T03:58:50.542Z,65.11
2022-10-05T04:01:25.509Z,65.02
2022-10-05T04:03:59.438Z,65.19
2022-10-05T04:06:34.219Z,65.38
2022-10-05T04:09:20.687Z,65.33
2022-10-05T04:11:54.884Z,65.37
2022-10-05T04:14:40.578Z,65.28
2022-10-05T04:17:17.185Z,65.36
2022-10-05T04:19:59.138Z,65.54
2022-10-05T04:22:37.275Z,65.47
2022-10-05T04:25:29.650Z,65.56
2022-10-05T04:28:32.201Z,65.59
2022-10-05T04:31:03.874Z,65.63
2022-10-05T04:33:33.161Z,65.62
2022-10-05T04:36:19.546Z,65.70
2022-10-05T04:39:03.122Z,65.77
2022-10-05T04:42:00.611Z,65.64
2022-10-05T04:44:44.100Z,65.64
2022-10-05T04:47:30.666Z,65.81
2022-10-05T04:50:10.999Z,65.81
2022-10-05T04:53:14.769Z,65.77
2022-10-05T04:56:15.050Z,65.82
2022-10-05T04:59:13.508Z,65.94
2022-10-05T05:01:58.547Z,65.93
2022-10-05T05:04:42.119Z,65.88
2022-10-05T05:07:16.116Z,66.04
2022-10-05T05:10:15.661Z,66.10
2022-10-05T05:13:05.332Z,66.11
2022-10-05T05:15:51.629Z,66.12
2022-10-05T05:18:34.032Z,66.18
2022-10-05T05:21:22.699Z,66.14
2022-10-05T05:24:11.859Z,66.04
2022-10-05T05:27:12.284Z,66.26
2022-10-05T05:30:02.542Z,66.33
2022-10-05T05:32:41.741Z,66.33
2022-10-05T05:35:27.863Z,66.25
2022-10-05T05:38:27.577Z,66.13
2022-10-05T05:41:11.356Z,66.25
2022-10-05T05:43:55.043Z,66.37
2022-10-05T05:47:04.015Z,66.46
2022-10-05T05:49:50.217Z,66.25
2022-10-05T05:52:52.671Z,66.08
2022-10-05T05:55:30.612Z,66.19
2022-10-05T05:58:32.258Z,66.37
2022-10-05T06:01:13.195Z,66.40
2022-10-05T06:04:10.996Z,66.33
2022-10-05T06:06:58.006Z,66.33
2022-10-05T06:09:40.434Z,66.35
2022-10-05T06:12:23.614Z,66.52
2022-10-05T06:15:23.958Z,66.41
2022-10-05T06:17:58.841Z,66.50
2022-10-05T06:20:33.817Z,66.58
2022-10-05T06:23:18.817Z,66.53
2022-10-05T06:26:22.604Z,66.61
2022-10-05T06:29:04.568Z,66.60
2022-10-05T06:32:04.133Z,66.69
2022-10-05T06:34:42.033Z,66.65
2022-10-05T06:37:33.159Z,66.60
2022-10-05T06:40:15.675Z,66.59
2022-10-05T06:43:08.087Z,66.65
2022-10-05T06:46:00.141Z,66.64
2022-10-05T06:48:58.841Z,66.68
2022-10-05T06:51:43.967Z,66.74
2022-10-05T06:54:22.996Z,66.74
2022-10-05T06:57:04.173Z,66.66
2022-10-05T07:00:02.056Z,66.41
2022-10-05T07:02:55.886Z,66.47
2022-10-05T07:05:46.113Z,66.45
2022-10-05T07:08:15.981Z,66.56
2022-10-05T07:11:05.584Z,66.25
2022-10-05T07:14:05.154Z,66.40
2022-10-05T07:17:01.660Z,66.33
2022-10-05T07:19:36.981Z,66.42
2022-10-05T07:22:20.485Z,66.38
2022-10-05T07:25:08.340Z,66.59
2022-10-05T07:27:48.273Z,66.42
2022-10-05T07:30:19.820Z,66.62
2022-10-05T07:33:05.688Z,66.52
2022-10-05T07:36:21.930Z,66.27
2022-10-05T07:39:01.510Z,66.18
2022-10-05T07:41:43.774Z,66.11
2022-10-05T07:44:16.695Z,65.97
2022-10-05T07:46:58.613Z,66.03
2022-10-05T07:49:45.170Z,66.10
2022-10-05T07:52:28.283Z,66.16
2022-10-05T07:55:31.310Z,66.01
2022-10-05T07:58:17.684Z,65.92
2022-10-05T08:01:13.772Z,65.87
2022-10-05T08:04:03.399Z,65.99
2022-10-05T08:06:50.207Z,65.61
2022-10-05T08:09:50.085Z,65.71
2022-10-05T08:12:37.547Z,65.88
2022-10-05T08:15:27.313Z,65.75
2022-10-05T08:18:02.465Z,65.71
2022-10-05T08:20:33.872Z,65.66
2022-10-05T08:23:08.782Z,65.81
2022-10-05T08:26:00.306Z,65.78
2022-10-05T08:28:38.692Z,65.61
2022-10-05T08:31:20.947Z,65.12
2022-10-05T08:33:58.556Z,65.18
2022-10-05T08:36:58.677Z,64.94
2022-10-05T08:39:32.003Z,64.84
2022-10-05T08:42:06.947Z,64.78
2022-10-05T08:44:57.352Z,64.78
2022-10-05T08:47:58.307Z,64.68
2022-10-05T08:50:46.291Z,64.68
2022-10-05T08:53:33.225Z,64.91
2022-10-05T08:56:22.195Z,64.86
2022-10-05T08:59:19.576Z,64.55
2022-10-05T09:01:50.732Z,64.06
2022-10-05T09:04:51.625Z,64.09
2022-10-05T09:07:27.208Z,63.95
2022-10-05T09:10:24.747Z,63.59
2022-10-05T09:12:52.207Z,63.66
2022-10-05T09:15:28.632Z,63.35
2022-10-05T09:18:28.208Z,63.30
2022-10-05T09:21:02.961Z,63.59
2022-10-05T09:23:49.846Z,63.73
2022-10-05T09:26:49.333Z,63.42
2022-10-05T09:29:53.242Z,63.46
2022-10-05T09:32:51.703Z,63.39
2022-10-05T09:35:57.496Z,63.10
2022-10-05T09:38:57.000Z,63.05
2022-10-05T09:41:27.121Z,63.05
2022-10-05T09:44:18.436Z,63.05
2022-10-05T09:47:25.357Z,63.12
2022-10-05T09:50:07.979Z,63.19
2022-10-05T09:52:51.586Z,63.20
2022-10-05T09:55:35.074Z,63.11
2022-10-05T09:58:17.546Z,62.99
2022-10-05T10:01:03.690Z,63.01
2022-10-05T10:03:56.796Z,62.74
2022-10-05T10:06:46.514Z,62.79
2022-10-05T10:09:46.109Z,62.87
2022-10-05T10:12:42.286Z,63.06
2022-10-05T10:15:40.824Z,62.63
2022-10-05T10:18:20.840Z,62.76
2022-10-05T10:21:20.371Z,62.85
2022-10-05T10:24:14.806Z,63.01
2022-10-05T10:26:49.569Z,62.00
2022-10-05T10:29:39.783Z,61.94
2022-10-05T10:32:13.412Z,61.82
2022-10-05T10:35:20.396Z,61.80
2022-10-05T10:38:20.249Z,61.46
2022-10-05T10:41:06.042Z,61.08
2022-10-05T10:44:05.729Z,60.68
2022-10-05T10:47:07.223Z,61.24
2022-10-05T10:49:53.445Z,60.93
2022-10-05T10:53:03.387Z,61.25
2022-10-05T10:55:38.022Z,61.43
2022-10-05T10:58:36.766Z,61.27
2022-10-05T11:01:36.320Z,61.31
2022-10-05T11:04:09.892Z,61.12
2022-10-05T11:07:09.303Z,61.02
2022-10-05T11:09:55.525Z,60.87
2022-10-05T11:12:41.214Z,60.75
2022-10-05T11:15:25.427Z,61.00
2022-10-05T11:18:01.240Z,61.08
2022-10-05T11:20:44.724Z,61.01
2022-10-05T11:23:29.590Z,60.88
2022-10-05T11:25:57.129Z,60.99
2022-10-05T11:28:50.118Z,60.98
2022-10-05T11:31:21.077Z,60.04
2022-10-05T11:34:11.793Z,59.70
2022-10-05T11:37:15.855Z,60.08
2022-10-05T11:39:55.503Z,59.82
2022-10-05T11:42:49.333Z,60.03
2022-10-05T11:45:45.451Z,60.00
2022-10-05T11:48:30.373Z,60.02
2022-10-05T11:51:30.120Z,60.24
2022-10-05T11:54:32.526Z,60.21
2022-10-05T11:57:18.866Z,60.05
2022-10-05T12:00:07.023Z,60.19
2022-10-05T12:02:54.480Z,60.08
2022-10-05T12:05:53.109Z,60.35
2022-10-05T12:08:26.666Z,60.53
2022-10-05T12:11:13.075Z,60.50
2022-10-05T12:13:56.032Z,60.18
2022-10-05T12:16:39.694Z,60.13
2022-10-05T12:19:27.194Z,59.97
2022-10-05T12:22:04.206Z,60.21
2022-10-05T12:25:08.063Z,60.29
2022-10-05T12:27:43.605Z,60.23
2022-10-05T12:30:18.159Z,60.12
2022-10-05T12:33:01.731Z,59.84
2022-10-05T12:35:47.379Z,60.06
2022-10-05T12:38:38.170Z,60.00
2022-10-05T12:41:40.547Z,59.87
2022-10-05T12:44:13.899Z,59.59
2022-10-05T12:46:57.315Z,59.20
2022-10-05T12:49:56.836Z,59.26
2022-10-05T12:52:43.394Z,59.40
2022-10-05T12:55:15.718Z,59.33
2022-10-05T12:58:21.966Z,59.22
2022-10-05T13:00:58.360Z,59.32
2022-10-05T13:03:36.902Z,59.12
2022-10-05T13:06:23.195Z,59.29
2022-10-05T13:09:14.668Z,59.48
2022-10-05T13:11:48.989Z,59.23
2022-10-05T13:14:46.602Z,59.24
2022-10-05T13:17:43.434Z,59.43
2022-10-05T13:20:24.841Z,59.39
2022-10-05T13:23:12.732Z,59.47
2022-10-05T13:26:08.008Z,59.34
2022-10-05T13:28:59.619Z,59.21
2022-10-05T13:31:33.222Z,59.40
2022-10-05T13:34:42.151Z,59.29
2022-10-05T13:37:24.678Z,59.35
2022-10-05T13:40:01.169Z,59.52
2022-10-05T13:42:38.624Z,59.64
2022-10-05T13:45:18.808Z,59.46
2022-10-05T13:47:51.326Z,59.61
2022-10-05T13:50:50.866Z,59.51
2022-10-05T13:53:35.496Z,59.42
2022-10-05T13:56:16.087Z,59.45
2022-10-05T13:59:07.528Z,59.52
2022-10-05T14:01:49.747Z,59.54
2022-10-05T14:04:19.736Z,59.52
2022-10-05T14:06:48.843Z,59.65
2022-10-05T14:09:19.381Z,59.59
2022-10-05T14:11:50.360Z,59.46
2022-10-05T14:14:28.250Z,59.79
2022-10-05T14:17:00.498Z,59.50
2022-10-05T14:19:41.367Z,59.64
2022-10-05T14:22:27.339Z,59.60
2022-10-05T14:25:02.075Z,59.75
2022-10-05T14:27:33.660Z,59.68
2022-10-05T14:30:18.269Z,59.83
2022-10-05T14:32:57.310Z,59.72
2022-10-05T14:35:51.280Z,59.79
2022-10-05T14:38:30.179Z,60.04
2022-10-05T14:41:19.846Z,59.82
2022-10-05T14:43:53.141Z,59.97
2022-10-05T14:46:29.049Z,60.06
2022-10-05T14:49:21.167Z,59.93
2022-10-05T14:51:53.787Z,60.00
2022-10-05T14:54:47.527Z,59.93
2022-10-05T14:57:44.432Z,60.00
2022-10-05T15:00:17.482Z,59.91
2022-10-05T15:03:23.931Z,60.04
2022-10-05T15:05:58.775Z,59.95
2022-10-05T15:08:50.711Z,60.02
2022-10-05T15:11:34.955Z,60.32
2022-10-05T15:14:13.824Z,60.26
2022-10-05T15:16:42.421Z,60.42
2022-10-05T15:19:22.643Z,60.31
2022-10-05T15:22:10.526Z,60.29
2022-10-05T15:24:46.102Z,60.25
2022-10-05T15:27:36.465Z,60.26
2022-10-05T15:30:23.145Z,60.28
2022-10-05T15:33:14.518Z,60.51
2022-10-05T15:36:14.574Z,60.33
2022-10-05T15:39:03.900Z,60.55
2022-10-05T15:41:58.918Z,60.68
2022-10-05T15:44:52.243Z,60.65
2022-10-05T15:47:28.675Z,60.64
2022-10-05T15:50:07.505Z,60.70
2022-10-05T15:52:48.601Z,60.80
2022-10-05T15:55:35.352Z,60.81
2022-10-05T15:58:25.599Z,60.73
2022-10-05T16:01:10.162Z,60.76
2022-10-05T16:04:09.641Z,61.09
2022-10-05T16:07:05.620Z,61.15
2022-10-05T16:10:15.341Z,61.13
2022-10-05T16:13:14.891Z,61.28
2022-10-05T16:16:04.451Z,61.38
2022-10-05T16:18:47.985Z,61.40
2022-10-05T16:21:44.027Z,61.53
2022-10-05T16:24:45.802Z,61.44
2022-10-05T16:27:22.682Z,61.62
2022-10-05T16:30:09.765Z,61.66
2022-10-05T16:32:53.596Z,61.75
2022-10-05T16:35:39.259Z,61.84
2022-10-05T16:38:19.397Z,61.94
2022-10-05T16:40:59.652Z,61.95
2022-10-05T16:43:51.960Z,62.05
2022-10-05T16:46:36.587Z,62.20
2022-10-05T16:49:37.121Z,62.40
2022-10-05T16:52:08.389Z,62.36
2022-10-05T16:54:57.822Z,62.46
2022-10-05T16:57:46.355Z,62.34
2022-10-05T17:00:16.804Z,62.41
2022-10-05T17:02:51.092Z,62.57
2022-10-05T17:05:24.761Z,62.59
2022-10-05T17:08:21.550Z,62.70
2022-10-05T17:10:49.337Z,62.61
2022-10-05T17:13:23.614Z,62.87
2022-10-05T17:16:10.005Z,63.00
2022-10-05T17:19:09.675Z,62.88
2022-10-05T17:22:01.937Z,63.05
2022-10-05T17:24:35.513Z,62.91
2022-10-05T17:27:32.988Z,63.24
2022-10-05T17:30:39.742Z,63.19
2022-10-05T17:33:29.959Z,63.30
2022-10-05T17:36:17.123Z,63.25
2022-10-05T17:39:12.461Z,63.28
2022-10-05T17:41:40.215Z,63.41
2022-10-05T17:44:19.518Z,63.37
2022-10-05T17:47:04.768Z,63.42
2022-10-05T17:50:27.296Z,63.62
2022-10-05T17:53:42.793Z,63.59
2022-10-05T17:56:10.368Z,63.68
2022-10-05T17:58:44.189Z,63.56
2022-10-05T18:01:25.279Z,63.79
2022-10-05T18:03:52.923Z,63.82
2022-10-05T18:06:28.212Z,63.81
2022-10-05T18:09:30.824Z,64.05
2022-10-05T18:12:11.168Z,64.08
2022-10-05T18:15:10.718Z,64.21
2022-10-05T18:17:46.213Z,64.09
2022-10-05T18:20:15.155Z,64.20
2022-10-05T18:22:46.884Z,64.30
2022-10-05T18:25:47.621Z,64.43
2022-10-05T18:28:50.796Z,64.49
2022-10-05T18:31:26.416Z,64.57
2022-10-05T18:34:26.732Z,64.55
2022-10-05T18:37:25.847Z,64.56
2022-10-05T18:40:09.674Z,64.63
2022-10-05T18:43:03.353Z,64.59
2022-10-05T18:46:02.952Z,64.79
2022-10-05T18:49:02.535Z,64.88
2022-10-05T18:51:51.825Z,64.83
2022-10-05T18:54:54.415Z,64.98
2022-10-05T18:57:28.239Z,65.16
2022-10-05T19:00:17.439Z,64.94
2022-10-05T19:03:17.806Z,65.06
2022-10-05T19:06:00.622Z,65.28
2022-10-05T19:08:32.864Z,65.18
2022-10-05T19:11:05.713Z,65.45
2022-10-05T19:13:57.315Z,65.37
2022-10-05T19:16:27.986Z,65.28
2022-10-05T19:19:07.541Z,65.48
2022-10-05T19:21:38.657Z,65.34
2022-10-05T19:24:16.572Z,65.48
2022-10-05T19:27:01.481Z,65.58
2022-10-05T19:29:53.150Z,65.58
2022-10-05T19:32:52.726Z,65.56
2022-10-05T19:35:39.041Z,65.76
2022-10-05T19:38:14.586Z,65.71
2022-10-05T19:40:58.998Z,65.76
2022-10-05T19:43:35.786Z,65.80
2022-10-05T19:46:22.188Z,65.91
2022-10-05T19:48:54.250Z,66.04
2022-10-05T19:51:29.487Z,66.05
2022-10-05T19:54:21.775Z,66.18
2022-10-05T19:56:53.019Z,65.97
2022-10-05T19:59:27.252Z,66.15
2022-10-05T20:01:56.625Z,66.09
2022-10-05T20:04:41.362Z,66.30
2022-10-05T20:07:15.574Z,66.36
2022-10-05T20:09:58.490Z,66.46
2022-10-05T20:12:50.501Z,66.32
2022-10-05T20:15:37.129Z,66.45
2022-10-05T20:18:52.873Z,66.45
2022-10-05T20:21:57.283Z,66.50
2022-10-05T20:24:29.612Z,66.61
2022-10-05T20:27:02.212Z,66.68
2022-10-05T20:29:41.095Z,66.73
2022-10-05T20:32:15.232Z,66.71
2022-10-05T20:34:46.373Z,66.86
2022-10-05T20:37:16.402Z,66.89
2022-10-05T20:39:45.128Z,66.75
2022-10-05T20:42:12.675Z,66.85
2022-10-05T20:44:40.761Z,66.75
2022-10-05T20:47:11.254Z,66.68
2022-10-05T20:49:44.461Z,66.87
2022-10-05T20:52:15.069Z,66.86
2022-10-05T20:54:42.801Z,66.96
2022-10-05T20:57:10.453Z,66.95
2022-10-05T20:59:38.016Z,66.99
2022-10-05T21:02:06.169Z,67.05
2022-10-05T21:04:43.098Z,67.03
2022-10-05T21:07:10.884Z,67.21
2022-10-05T21:09:39.512Z,66.87
2022-10-05T21:12:07.059Z,67.04
2022-10-05T21:14:36.685Z,67.09
2022-10-05T21:17:07.556Z,67.31
2022-10-05T21:19:40.507Z,67.24
2022-10-05T21:22:10.190Z,67.20
2022-10-05T21:24:39.400Z,67.32
2022-10-05T21:27:09.553Z,67.26
2022-10-05T21:29:37.286Z,67.35
2022-10-05T21:32:09.059Z,67.37
2022-10-05T21:34:37.882Z,67.27
2022-10-05T21:37:05.513Z,67.34
2022-10-05T21:39:34.925Z,67.23
2022-10-05T21:42:02.825Z,67.51
2022-10-05T21:44:30.397Z,67.44
2022-10-05T21:46:58.054Z,67.34
2022-10-05T21:49:27.115Z,67.33
2022-10-05T21:51:54.849Z,67.46
2022-10-05T21:54:23.821Z,67.43
2022-10-05T21:56:55.234Z,67.38
2022-10-05T21:59:29.007Z,67.57
2022-10-05T22:01:56.618Z,67.41
2022-10-05T22:04:24.179Z,67.67
2022-10-05T22:06:51.752Z,67.54
2022-10-05T22:09:19.287Z,67.57
2022-10-05T22:11:48.864Z,67.53
2022-10-05T22:14:16.550Z,67.56
2022-10-05T22:16:44.791Z,67.61
2022-10-05T22:19:18.919Z,67.76
2022-10-05T22:21:46.592Z,67.81
2022-10-05T22:24:14.206Z,67.85
2022-10-05T22:26:47.343Z,67.88
2022-10-05T22:29:16.860Z,67.72
2022-10-05T22:31:49.185Z,67.92
2022-10-05T22:34:18.841Z,67.79
2022-10-05T22:36:47.547Z,67.95
2022-10-05T22:39:16.500Z,67.90
2022-10-05T22:41:44.075Z,67.83
2022-10-05T22:44:11.674Z,67.84
2022-10-05T22:46:39.753Z,67.93
2022-10-05T22:49:07.352Z,67.96
2022-10-05T22:51:35.029Z,67.82
2022-10-05T22:54:02.659Z,67.78
2022-10-05T22:56:30.282Z,67.92
2022-10-05T22:58:57.944Z,68.01
2022-10-05T23:01:25.574Z,67.99
2022-10-05T23:03:54.470Z,68.03
2022-10-05T23:06:22.476Z,67.98
2022-10-05T23:08:50.409Z,68.12
2022-10-05T23:11:26.289Z,68.01
2022-10-05T23:13:57.144Z,68.16
2022-10-05T23:16:27.108Z,68.29
2022-10-05T23:18:56.355Z,68.15
2022-10-05T23:21:27.669Z,68.15
2022-10-05T23:23:55.836Z,68.13
2022-10-05T23:26:25.187Z,68.19
2022-10-05T23:28:52.848Z,68.28
2022-10-05T23:31:26.947Z,68.29
2022-10-05T23:33:55.434Z,68.12
2022-10-05T23:36:31.665Z,68.27
2022-10-05T23:39:00.163Z,68.25
2022-10-05T23:41:27.727Z,68.25
2022-10-05T23:43:55.396Z,68.19
2022-10-05T23:46:23.248Z,68.32
2022-10-05T23:48:50.970Z,68.21
2022-10-05T23:51:18.729Z,68.18
2022-10-05T23:53:46.336Z,68.19
2022-10-05T23:56:13.910Z,68.28
2022-10-05T23:58:41.500Z,68.50
